Mednogorsk, Russia
Current Conditions -  °F | °C
As of 11:00 AM on Wednesday 26 Nov 2014 (Local Time) from UWOR Reporting Station
Clear Clear  
Wind Chill: -7°   Ceiling: Unl
Heat Index: 12°   Visibility: 6mi
Dew Point:   Wind: 22mph
Humidity: 73%   Direction: 280°W
Pressure: 30.36"   Gusts: 31mph
Location:  51.42°N, 57.58°E
Report Text: UWOR 260600Z 28010G14MPS CAVOK M11/M15 Q1028 25CLRD65 NOSIG RMKQFE747/0997
Loading
Personal Weather Stations






























Interactive Weather Map New forecast layout! Learn more

10-Day Weather Forecast

Advertisements
Track Severe Weather on mobile